Time;durP1;ratioP1;P1;durP2;ratioP2;P2;SDS_P1;SDS_P2;PMS_P1;PMS_P2;Temp;Humidity;BMP_temperature;BMP_pressure;BME280_temperature;BME280_humidity;BME280_pressure;Samples;Min_cycle;Max_cycle;Signal;HPM_P1;HPM_P2
2022/05/20 00:01:52;;;;;;;6.83;4.53;;;;;;;13.08;79.79;102117.19;6244397;23;20031;-86
2022/05/20 00:04:20;;;;;;;7.27;4.33;;;;;;;13.08;79.43;102125.00;6245675;23;20365;-86
2022/05/20 00:06:45;;;;;;;6.75;4.38;;;;;;;13.03;79.69;102121.53;6245411;23;20049;-86
2022/05/20 00:09:11;;;;;;;7.23;4.93;;;;;;;12.96;80.01;102118.09;6244945;23;20008;-86
2022/05/20 00:11:36;;;;;;;7.37;4.60;;;;;;;12.94;79.76;102117.28;6245581;23;20007;-86
2022/05/20 00:14:01;;;;;;;6.80;4.33;;;;;;;12.95;79.81;102126.78;6245551;23;20007;-86
2022/05/20 00:16:29;;;;;;;7.53;4.90;;;;;;;12.89;79.89;102112.06;6244838;23;20012;-86
2022/05/20 00:18:54;;;;;;;7.07;4.70;;;;;;;12.88;79.82;102118.16;6245254;23;20330;-86
2022/05/20 00:21:19;;;;;;;7.67;4.73;;;;;;;12.85;79.92;102115.56;6244990;23;20083;-86
2022/05/20 00:23:44;;;;;;;7.40;4.60;;;;;;;12.82;80.05;102126.88;6246007;23;20047;-86
2022/05/20 00:26:10;;;;;;;6.70;4.60;;;;;;;12.81;80.13;102125.13;6247777;23;20380;-86
2022/05/20 00:28:43;;;;;;;7.53;4.50;;;;;;;12.76;79.71;102124.28;6247978;23;20298;-86
2022/05/20 00:31:09;;;;;;;6.65;4.32;;;;;;;12.71;80.01;102125.16;6247110;23;20039;-86
2022/05/20 00:33:35;;;;;;;;;;;;;;;12.67;79.99;102117.34;6247881;23;20000;-86
2022/05/20 00:36:01;;;;;;;7.05;4.53;;;;;;;12.61;79.92;102111.34;6245719;23;19915;-86
2022/05/20 00:38:26;;;;;;;8.40;4.93;;;;;;;12.64;80.19;102116.50;6247732;23;20020;-86
2022/05/20 00:40:54;;;;;;;7.37;4.80;;;;;;;12.62;80.14;102110.44;6247167;23;20011;-86
2022/05/20 00:43:44;;;;;;;7.50;4.70;;;;;;;12.60;80.07;102110.44;6246350;23;20015;-86
2022/05/20 00:46:39;;;;;;;8.18;4.95;;;;;;;12.61;80.22;102113.94;6247340;23;20007;-86
2022/05/20 00:52:09;;;;;;;6.18;4.35;;;;;;;12.55;80.39;102106.13;6220175;23;20070;-86
2022/05/20 00:54:40;;;;;;;7.00;4.55;;;;;;;12.59;80.39;102107.84;6247079;23;20023;-86
2022/05/20 00:57:13;;;;;;;6.22;4.20;;;;;;;12.54;80.46;102107.00;6246375;23;20007;-85
2022/05/20 00:59:50;;;;;;;6.03;4.38;;;;;;;12.52;80.44;102101.81;6246936;23;20425;-85
2022/05/20 01:02:19;;;;;;;5.93;4.32;;;;;;;12.50;80.41;102113.94;6247251;23;20132;-85
2022/05/20 01:04:46;;;;;;;7.35;4.80;;;;;;;12.45;80.61;102108.75;6245546;23;20405;-85
2022/05/20 01:07:13;;;;;;;6.95;4.68;;;;;;;12.42;80.53;102102.69;6247082;23;20049;-85
2022/05/20 01:09:39;;;;;;;7.20;4.60;;;;;;;12.42;80.65;102105.31;6246662;23;20379;-85
2022/05/20 01:12:05;;;;;;;7.77;4.97;;;;;;;12.38;80.50;102106.19;6246714;23;20410;-85
2022/05/20 01:14:31;;;;;;;8.70;5.20;;;;;;;12.33;80.65;102098.38;6247368;23;20034;-85
2022/05/20 01:16:56;;;;;;;8.17;5.20;;;;;;;12.33;80.62;102107.03;6247109;23;20425;-86
2022/05/20 01:19:47;;;;;;;6.17;4.30;;;;;;;12.33;80.90;102107.03;6246345;23;20004;-85
2022/05/20 01:22:24;;;;;;;7.88;5.00;;;;;;;12.29;80.76;102114.88;6246641;23;20046;-86
2022/05/20 01:24:49;;;;;;;6.80;4.70;;;;;;;12.24;80.77;102104.47;6216273;23;20059;-85
2022/05/20 01:27:14;;;;;;;7.40;5.03;;;;;;;12.23;80.70;102100.13;6216045;23;20091;-85
2022/05/20 01:29:46;;;;;;;5.70;4.20;;;;;;;12.26;80.37;102109.69;6216453;23;20009;-85
2022/05/20 01:32:11;;;;;;;7.00;4.50;;;;;;;12.22;81.05;102111.41;6216656;23;20012;-85
2022/05/20 01:34:37;;;;;;;5.93;4.23;;;;;;;12.19;81.05;102101.03;6214954;23;20321;-85
2022/05/20 01:37:03;;;;;;;6.70;4.68;;;;;;;12.20;80.99;102097.56;6216794;23;20008;-85
2022/05/20 01:39:28;;;;;;;6.77;4.27;;;;;;;12.14;80.84;102088.00;6215156;23;20008;-84
2022/05/20 01:42:20;;;;;;;6.83;4.43;;;;;;;12.15;81.10;102094.06;6216536;23;20000;-85
2022/05/20 01:45:03;;;;;;;6.18;4.28;;;;;;;12.14;81.21;102090.63;6216644;23;20008;-85
2022/05/20 01:47:49;;;;;;;7.40;4.65;;;;;;;12.14;81.02;102085.41;6215493;23;20005;-85
2022/05/20 01:50:46;;;;;;;6.32;4.50;;;;;;;12.13;81.30;102091.50;6215917;23;20381;-85
2022/05/20 01:53:36;;;;;;;6.38;4.45;;;;;;;12.02;81.33;102072.41;6216197;23;20433;-84
2022/05/20 01:56:17;;;;;;;6.05;4.28;;;;;;;12.01;81.28;102071.53;6216059;23;20088;-85
2022/05/20 01:59:08;;;;;;;5.68;4.28;;;;;;;11.99;81.33;102072.41;6216490;23;20050;-84
2022/05/20 02:01:38;;;;;;;5.47;3.97;;;;;;;11.94;81.29;102074.13;6215529;23;20004;-85
2022/05/20 02:04:10;;;;;;;5.38;3.80;;;;;;;11.89;81.34;102075.00;6216711;23;20008;-84
2022/05/20 02:06:49;;;;;;;6.13;3.88;;;;;;;11.89;81.43;102079.31;6216495;23;20005;-85
2022/05/20 02:09:25;;;;;;;5.88;4.15;;;;;;;11.85;81.41;102075.88;6215879;23;20028;-84
2022/05/20 02:11:53;;;;;;;5.73;4.20;;;;;;;11.80;81.36;102066.34;6216185;23;20008;-84
2022/05/20 02:14:28;;;;;;;5.10;4.05;;;;;;;11.77;81.46;102058.53;6215870;23;20303;-85
2022/05/20 02:17:07;;;;;;;6.88;4.55;;;;;;;11.77;81.44;102063.72;6216375;23;20300;-84
2022/05/20 02:19:39;;;;;;;7.15;4.57;;;;;;;11.73;81.86;102049.88;6216344;23;20004;-84
2022/05/20 02:22:09;;;;;;;7.40;4.85;;;;;;;11.77;81.51;102067.22;6215128;23;20005;-84
2022/05/20 02:24:37;;;;;;;7.10;4.63;;;;;;;11.73;81.89;102061.16;6216256;23;20005;-84
2022/05/20 02:27:06;;;;;;;9.13;5.57;;;;;;;11.71;81.42;102060.28;6215983;23;20100;-85
2022/05/20 02:29:52;;;;;;;7.00;4.70;;;;;;;11.71;81.63;102059.41;6214957;23;20035;-84
2022/05/20 02:32:50;;;;;;;6.70;4.50;;;;;;;11.67;81.49;102058.53;6216201;23;20001;-84
2022/05/20 02:35:28;;;;;;;7.40;4.80;;;;;;;11.67;81.54;102058.53;6167896;23;20005;-84
2022/05/20 02:37:54;;;;;;;8.77;5.40;;;;;;;11.69;81.48;102055.94;6214846;23;20007;-84
2022/05/20 02:40:20;;;;;;;9.25;5.32;;;;;;;11.68;81.47;102054.22;6216259;23;20005;-84
2022/05/20 02:43:03;;;;;;;8.33;5.20;;;;;;;11.70;81.67;102060.28;6214046;23;20039;-84
2022/05/20 02:45:28;;;;;;;10.60;5.78;;;;;;;11.68;81.47;102065.47;6215854;23;20088;-84
2022/05/20 02:47:54;;;;;;;8.63;5.00;;;;;;;11.68;81.82;102073.28;6215460;23;20105;-84
2022/05/20 02:50:19;;;;;;;8.50;4.93;;;;;;;11.67;81.70;102061.13;6215114;23;20012;-84
2022/05/20 02:52:44;;;;;;;8.67;5.20;;;;;;;11.65;81.70;102057.66;6215615;23;20390;-84
2022/05/20 02:55:16;;;;;;;9.27;5.03;;;;;;;11.68;81.77;102069.81;6215293;23;20016;-83
2022/05/20 02:57:44;;;;;;;10.32;5.18;;;;;;;11.63;81.69;102056.81;6214733;23;20011;-84
2022/05/20 03:05:38;;;;;;;9.30;5.05;;;;;;;11.65;81.95;102054.22;6214506;23;20062;-84
2022/05/20 03:08:04;;;;;;;7.87;4.67;;;;;;;11.60;81.72;102051.63;6215908;23;20091;-84
2022/05/20 03:10:29;;;;;;;8.30;4.70;;;;;;;11.58;82.10;102049.03;6216227;23;20005;-84
2022/05/20 03:13:06;;;;;;;6.63;4.13;;;;;;;11.60;82.06;102051.63;6214639;23;20071;-84
2022/05/20 03:15:33;;;;;;;6.38;3.88;;;;;;;11.55;81.96;102046.41;6215623;23;20000;-82
2022/05/20 03:17:58;;;;;;;7.10;4.32;;;;;;;11.53;82.21;102039.50;6214654;23;20010;-82
2022/05/20 03:20:24;;;;;;;6.80;4.33;;;;;;;11.53;82.42;102039.50;6216071;23;20036;-82
2022/05/20 03:22:49;;;;;;;6.20;4.20;;;;;;;11.56;82.43;102042.94;6215689;23;20014;-83
2022/05/20 03:25:15;;;;;;;6.17;4.30;;;;;;;11.56;82.30;102042.06;6214862;23;20009;-82
2022/05/20 03:27:40;;;;;;;6.32;4.03;;;;;;;11.55;82.12;102045.53;6216015;23;20008;-82
2022/05/20 03:30:08;;;;;;;6.30;4.30;;;;;;;11.55;82.17;102046.41;6216237;23;20376;-82
2022/05/20 03:32:34;;;;;;;5.10;3.72;;;;;;;11.50;82.17;102044.69;6215064;23;20044;-83
2022/05/20 03:34:59;;;;;;;5.87;4.03;;;;;;;11.52;82.24;102042.97;6214798;23;20067;-82
2022/05/20 03:37:26;;;;;;;6.68;4.38;;;;;;;11.49;82.29;102046.41;6215480;23;20016;-82
2022/05/20 03:39:57;;;;;;;5.93;4.10;;;;;;;11.47;82.48;102049.88;6214021;23;20036;-82
2022/05/20 03:42:26;;;;;;;6.82;4.38;;;;;;;11.46;82.37;102054.22;6215067;23;20378;-82
2022/05/20 03:44:52;;;;;;;7.15;4.57;;;;;;;11.45;82.31;102044.69;6215574;23;20012;-82
2022/05/20 03:47:18;;;;;;;6.87;4.60;;;;;;;11.43;82.29;102049.00;6214931;23;20325;-83
2022/05/20 03:49:44;;;;;;;6.63;4.53;;;;;;;11.46;82.30;102053.34;6214814;23;20448;-82
2022/05/20 03:52:10;;;;;;;6.57;4.63;;;;;;;11.44;82.22;102043.81;6215392;23;20011;-83
2022/05/20 03:54:35;;;;;;;6.95;4.28;;;;;;;11.40;82.35;102033.41;6214310;23;20013;-82
2022/05/20 03:57:02;;;;;;;5.90;3.97;;;;;;;11.45;82.37;102036.88;6215345;23;20055;-83
2022/05/20 03:59:29;;;;;;;6.35;4.05;;;;;;;11.47;82.21;102037.75;6215826;23;20008;-83
2022/05/20 04:01:57;;;;;;;5.72;3.63;;;;;;;11.49;82.40;102033.41;6214788;23;20040;-83
2022/05/20 04:04:43;;;;;;;6.53;3.95;;;;;;;11.53;82.61;102029.94;6215271;23;20012;-82
2022/05/20 04:07:11;;;;;;;;;;;;;;;11.56;83.27;102024.75;6214748;23;20047;-82
2022/05/20 04:09:36;;;;;;;9.35;5.07;;;;;;;11.53;84.65;102018.69;6214891;23;19908;-83
2022/05/20 04:12:23;;;;;;;9.93;5.20;;;;;;;11.52;83.40;102012.59;6215306;23;20504;-82
2022/05/20 04:14:48;;;;;;;6.43;4.35;;;;;;;11.47;83.50;102005.69;6214398;23;20005;-83
2022/05/20 04:17:26;;;;;;;6.63;4.10;;;;;;;11.48;83.42;102013.50;6216798;23;20012;-83
2022/05/20 04:19:51;;;;;;;14.00;7.75;;;;;;;11.41;85.33;102001.34;6215703;23;20005;-83
2022/05/20 04:22:42;;;;;;;12.33;6.67;;;;;;;11.42;84.24;102009.16;6214575;23;20008;-82
2022/05/20 04:25:08;;;;;;;9.60;5.28;;;;;;;11.42;83.66;102000.47;6215875;23;20005;-83
2022/05/20 04:27:33;;;;;;;9.15;5.30;;;;;;;11.39;83.44;101998.75;6215828;23;20005;-83
2022/05/20 04:30:12;;;;;;;10.33;5.60;;;;;;;11.45;83.36;102005.69;6214811;23;20047;-83
2022/05/20 04:32:37;;;;;;;17.88;10.52;;;;;;;11.40;87.52;101997.00;6215823;23;20008;-83
2022/05/20 04:35:03;;;;;;;14.87;8.97;;;;;;;11.38;84.78;101999.63;6215445;23;20074;-83
2022/05/20 04:37:28;;;;;;;13.47;7.90;;;;;;;11.45;84.47;102013.50;6215620;23;20001;-83
2022/05/20 04:39:54;;;;;;;10.70;6.53;;;;;;;11.44;84.07;102004.81;6215050;23;20423;-83
2022/05/20 04:47:48;;;;;;;9.07;5.78;;;;;;;11.61;83.68;102005.66;6214592;23;20016;-83
2022/05/20 04:50:14;;;;;;;8.33;5.23;;;;;;;11.64;84.39;102013.47;6214320;23;20004;-83
2022/05/20 04:52:39;;;;;;;7.13;4.80;;;;;;;11.68;84.28;102017.81;6214659;23;20004;-83
2022/05/20 04:55:10;;;;;;;8.17;5.00;;;;;;;11.77;83.88;102036.00;6214746;23;20013;-83
2022/05/20 04:57:39;;;;;;;8.30;5.15;;;;;;;11.85;83.91;102034.25;6213927;23;20437;-83
2022/05/20 05:00:08;;;;;;;8.40;4.97;;;;;;;11.88;83.28;102030.75;6215288;23;20007;-83
2022/05/20 05:02:34;;;;;;;8.20;5.20;;;;;;;11.96;83.88;102048.97;6214978;23;20085;-83
2022/05/20 05:05:00;;;;;;;9.67;5.40;;;;;;;12.07;83.94;102042.03;6213839;23;20450;-83
2022/05/20 05:07:40;;;;;;;7.70;4.97;;;;;;;12.19;83.31;102042.00;6215121;23;20001;-83
2022/05/20 05:10:07;;;;;;;9.85;6.00;;;;;;;12.25;86.01;102032.47;6216339;23;20473;-83
2022/05/20 05:12:32;;;;;;;18.92;10.98;;;;;;;12.18;85.96;102029.00;6215935;23;20024;-83
2022/05/20 05:14:58;;;;;;;16.70;9.40;;;;;;;12.23;85.92;102037.66;6216611;23;20004;-83
2022/05/20 05:20:16;;;;;;;15.52;9.40;;;;;;;12.28;86.42;102035.03;6216932;23;20016;-83
2022/05/20 05:22:56;;;;;;;20.40;11.90;;;;;;;12.27;87.79;102033.34;6216079;23;20016;-84
2022/05/20 05:25:24;;;;;;;19.65;11.88;;;;;;;12.25;86.28;102030.72;6215786;23;20365;-84
2022/05/20 05:27:49;;;;;;;18.23;10.95;;;;;;;12.29;87.45;102036.78;6216463;23;20001;-84
2022/05/20 05:30:15;;;;;;;16.30;9.47;;;;;;;12.28;86.24;102028.09;6216852;23;20071;-83
2022/05/20 05:32:41;;;;;;;14.37;8.40;;;;;;;12.41;85.38;102025.47;6215491;23;20047;-84
2022/05/20 05:35:10;;;;;;;14.57;8.20;;;;;;;12.55;86.44;102030.59;6216705;23;20693;-83
2022/05/20 05:37:40;;;;;;;11.93;6.60;;;;;;;12.65;86.16;102019.25;6216392;23;20009;-83
2022/05/20 05:40:08;;;;;;;14.25;8.02;;;;;;;12.73;86.62;102011.41;6214796;23;20007;-80
2022/05/20 05:42:33;;;;;;;14.73;7.68;;;;;;;12.76;84.45;102003.59;6216694;23;20009;-83
2022/05/20 05:44:59;;;;;;;17.30;10.27;;;;;;;12.80;88.24;102000.06;6216350;23;20397;-83
2022/05/20 05:47:28;;;;;;;17.53;9.67;;;;;;;12.88;86.38;102007.84;6215643;23;20072;-83
2022/05/20 05:50:08;;;;;;;19.90;11.93;;;;;;;12.96;89.31;102008.66;6216161;23;20012;-83
2022/05/20 05:52:42;;;;;;;21.48;14.50;;;;;;;12.98;88.74;101991.28;6215174;23;20024;-83
2022/05/20 05:55:08;;;;;;;20.05;13.32;;;;;;;13.04;88.52;101993.84;6216314;23;20017;-83
2022/05/20 05:57:34;;;;;;;22.15;15.25;;;;;;;13.10;89.13;101990.34;6216902;23;20005;-83
2022/05/20 06:00:02;;;;;;;22.83;15.70;;;;;;;13.19;88.78;101984.16;6215678;23;20043;-83
2022/05/20 06:02:36;;;;;;;20.17;13.10;;;;;;;13.27;87.90;101972.81;6215731;23;20008;-83
2022/05/20 06:05:02;;;;;;;17.02;10.05;;;;;;;13.46;87.54;101984.88;6215746;23;20433;-84
2022/05/20 06:07:27;;;;;;;15.67;9.20;;;;;;;13.58;86.83;102003.00;6215882;23;20011;-84
2022/05/20 06:09:52;;;;;;;22.57;12.47;;;;;;;13.67;84.85;101999.47;6215920;23;20441;-83
2022/05/20 06:12:17;;;;;;;18.10;10.30;;;;;;;13.73;85.88;101995.03;6216019;23;20005;-84
2022/05/20 06:14:42;;;;;;;19.80;12.83;;;;;;;13.79;86.36;101988.88;6214833;23;20005;-84
2022/05/20 06:17:11;;;;;;;19.87;12.47;;;;;;;13.80;85.52;101987.13;6216600;23;20000;-84
2022/05/20 06:19:40;;;;;;;18.50;10.13;;;;;;;13.96;86.20;101982.63;6216368;23;20008;-85
2022/05/20 06:22:11;;;;;;;26.70;19.80;;;;;;;14.27;84.43;101983.13;6215391;23;20001;-85
2022/05/20 06:24:37;;;;;;;22.30;14.52;;;;;;;14.85;85.66;101984.97;6216176;23;20007;-85
2022/05/20 06:27:14;;;;;;;19.50;11.50;;;;;;;15.41;83.69;101971.88;6215928;23;20012;-87
2022/05/20 06:29:42;;;;;;;21.85;14.13;;;;;;;16.03;79.98;101975.97;6215846;23;20315;-82
2022/05/20 06:32:08;;;;;;;24.88;17.90;;;;;;;16.77;74.74;101977.03;6216049;23;20012;-84
2022/05/20 06:39:49;;;;;;;25.67;18.10;;;;;;;17.30;71.35;101975.78;6216194;23;20027;-83
2022/05/20 06:40:20;;;;;;;20.02;12.23;;;;;;;18.75;70.83;101975.22;6216159;23;20342;-83
2022/05/20 06:42:45;;;;;;;18.55;11.18;;;;;;;19.02;72.11;101967.38;6214717;23;20000;-83
2022/05/20 06:45:13;;;;;;;18.70;11.23;;;;;;;18.87;69.52;101966.06;6216138;23;20322;-83
2022/05/20 06:47:39;;;;;;;19.20;11.48;;;;;;;18.46;69.30;101958.59;6215598;23;20001;-83
2022/05/20 06:50:06;;;;;;;17.95;10.38;;;;;;;18.12;69.55;101956.97;6215201;23;20131;-83
2022/05/20 06:52:52;;;;;;;;;;;;;;;17.73;71.07;101968.53;6215832;23;20011;-83
2022/05/20 06:55:29;;;;;;;18.35;11.38;;;;;;;17.05;70.24;101954.56;6214492;23;19923;-83
2022/05/20 06:57:54;;;;;;;19.42;11.43;;;;;;;16.64;72.53;101960.72;6214488;23;20051;-84
2022/05/20 07:00:19;;;;;;;14.20;8.40;;;;;;;16.52;73.04;101956.63;6215682;23;20036;-83
2022/05/20 07:02:44;;;;;;;13.27;7.53;;;;;;;16.63;74.25;101947.66;6216377;23;20091;-83
2022/05/20 07:05:10;;;;;;;15.17;8.83;;;;;;;16.75;72.60;101951.72;6215091;23;20011;-83
2022/05/20 07:07:37;;;;;;;20.57;13.23;;;;;;;16.70;70.49;101948.38;6216021;23;20028;-83
2022/05/20 07:10:04;;;;;;;20.50;12.18;;;;;;;16.64;71.55;101944.13;6214821;23;20303;-83
2022/05/20 07:12:33;;;;;;;;;;;;;;;16.63;72.53;101943.25;6216235;23;20007;-83
2022/05/20 07:15:00;;;;;;;18.33;9.63;;;;;;;16.64;72.50;101944.13;6215313;23;19978;-82
2022/05/20 07:17:25;;;;;;;19.83;11.40;;;;;;;16.43;70.36;101935.88;6215220;23;20075;-82
2022/05/20 07:19:51;;;;;;;18.60;10.10;;;;;;;16.34;71.61;101928.19;6214992;23;20373;-82
2022/05/20 07:22:16;;;;;;;17.13;10.10;;;;;;;16.32;72.09;101928.22;6215883;23;20072;-82
2022/05/20 07:24:43;;;;;;;19.47;11.13;;;;;;;16.29;71.19;101916.97;6214602;23;20009;-82
2022/05/20 07:27:09;;;;;;;17.35;10.13;;;;;;;16.42;72.25;101918.41;6215424;23;20007;-83
2022/05/20 07:29:35;;;;;;;13.07;7.50;;;;;;;16.72;72.30;101910.72;6216063;23;20004;-83
2022/05/20 07:32:00;;;;;;;18.70;10.52;;;;;;;16.91;69.87;101913.78;6214434;23;20009;-83
2022/05/20 07:34:27;;;;;;;18.63;10.07;;;;;;;16.95;70.63;101911.97;6215444;23;20011;-87
2022/05/20 07:37:06;;;;;;;17.05;9.40;;;;;;;17.15;70.21;101908.84;6213883;23;20005;-85
2022/05/20 07:39:31;;;;;;;17.45;9.57;;;;;;;17.26;67.82;101919.91;6214684;23;20028;-86
2022/05/20 07:41:57;;;;;;;18.33;11.13;;;;;;;17.00;66.06;101910.06;6214937;23;20090;-85
2022/05/20 07:44:23;;;;;;;15.57;9.17;;;;;;;17.04;66.29;101911.72;6215516;23;20001;-81
2022/05/20 07:46:48;;;;;;;16.60;8.70;;;;;;;17.06;67.92;101899.44;6214367;23;20468;-83
2022/05/20 07:49:13;;;;;;;14.57;8.13;;;;;;;17.22;68.20;101899.03;6215396;23;20005;-83
2022/05/20 07:51:43;;;;;;;18.33;9.23;;;;;;;17.35;65.37;101894.31;6215241;23;20009;-82
2022/05/20 07:54:14;;;;;;;17.17;9.50;;;;;;;17.37;66.32;101882.88;6214245;23;20019;-84
2022/05/20 07:56:44;;;;;;;12.35;7.47;;;;;;;17.52;67.11;101878.13;6215237;23;20009;-79
2022/05/20 07:59:16;;;;;;;14.73;8.23;;;;;;;17.72;66.56;101877.56;6214690;23;20009;-84
2022/05/20 08:01:45;;;;;;;10.63;6.25;;;;;;;17.91;68.50;101886.59;6214917;23;20000;-84
2022/05/20 08:07:07;;;;;;;11.43;5.90;;;;;;;18.32;64.79;101875.78;6214460;23;20078;-85
2022/05/20 08:09:33;;;;;;;10.48;5.88;;;;;;;18.43;61.40;101870.16;6187812;23;20005;-85
2022/05/20 08:11:59;;;;;;;9.17;5.33;;;;;;;18.48;64.16;101863.00;6215140;23;20005;-88
2022/05/20 08:14:26;;;;;;;6.43;4.40;;;;;;;18.61;65.62;101859.97;6214522;23;20004;-85
2022/05/20 08:16:52;;;;;;;5.18;3.83;;;;;;;18.85;65.92;101857.44;6207912;23;20016;-87
2022/05/20 08:19:21;;;;;;;9.20;4.80;;;;;;;19.05;62.37;101862.03;6215596;23;20318;-88
2022/05/20 08:21:46;;;;;;;6.13;4.00;;;;;;;19.14;65.17;101865.22;6214206;23;20005;-87
2022/05/20 08:24:21;;;;;;;10.40;5.80;;;;;;;19.25;60.38;101849.03;6215534;23;20066;-85
2022/05/20 08:26:56;;;;;;;14.43;7.78;;;;;;;18.96;60.48;101847.44;6214924;23;20000;-88
2022/05/20 08:29:22;;;;;;;12.45;7.10;;;;;;;18.77;58.98;101845.41;6214527;23;20008;-89
2022/05/20 08:31:51;;;;;;;11.50;6.05;;;;;;;18.85;62.36;101836.41;6214624;23;20015;-86
2022/05/20 08:34:16;;;;;;;14.90;8.40;;;;;;;18.73;59.18;101854.31;6214833;23;20004;-87
2022/05/20 08:36:41;;;;;;;14.50;7.50;;;;;;;18.58;61.46;101836.41;6215012;23;20012;-88
2022/05/20 08:39:12;;;;;;;12.73;6.97;;;;;;;18.68;61.29;101837.81;6215392;23;20007;-87
2022/05/20 08:41:47;;;;;;;8.50;5.40;;;;;;;18.78;62.15;101833.97;6214463;23;20034;-87
2022/05/20 08:44:21;;;;;;;10.55;5.82;;;;;;;18.92;62.10;101827.38;6216152;23;20004;-88
2022/05/20 08:47:02;;;;;;;6.80;4.47;;;;;;;18.97;61.98;101815.81;6217002;23;20338;-89
2022/05/20 08:49:28;;;;;;;14.18;7.25;;;;;;;18.83;59.47;101803.13;6216369;23;20368;-87
2022/05/20 08:51:53;;;;;;;15.53;7.80;;;;;;;18.71;60.36;101794.78;6216777;23;20068;-84
2022/05/20 08:54:22;;;;;;;10.00;5.60;;;;;;;18.88;61.40;101795.06;6216860;23;20013;-85
2022/05/20 08:56:49;;;;;;;9.70;5.38;;;;;;;19.06;61.01;101785.69;6215152;23;20429;-82
2022/05/20 08:59:19;;;;;;;8.63;4.90;;;;;;;19.32;61.94;101783.03;6217046;23;20009;-87
2022/05/20 09:01:51;;;;;;;8.57;5.30;;;;;;;19.50;60.56;101763.03;6216893;23;20080;-86
2022/05/20 09:04:22;;;;;;;6.40;4.20;;;;;;;19.73;61.65;101777.94;6216278;23;20008;-87
2022/05/20 09:07:14;;;;;;;9.35;5.20;;;;;;;19.84;61.33;101783.66;6216375;23;20059;-87
2022/05/20 09:09:42;;;;;;;7.95;5.45;;;;;;;19.87;60.39;101788.00;6215883;23;20307;-86
2022/05/20 09:12:07;;;;;;;10.68;5.38;;;;;;;19.89;60.15;101780.84;6216643;23;20307;-88
2022/05/20 09:17:22;;;;;;;11.30;6.15;;;;;;;19.87;59.89;101772.19;6216645;23;20060;-88
2022/05/20 09:20:05;;;;;;;9.18;5.78;;;;;;;19.92;60.03;101764.94;6216432;23;20433;-85
2022/05/20 09:22:38;;;;;;;8.05;4.60;;;;;;;20.00;61.02;101759.38;6216990;23;20092;-88
2022/05/20 09:25:21;;;;;;;7.13;4.00;;;;;;;20.14;60.65;101753.53;6215438;23;20084;-88
2022/05/20 09:27:46;;;;;;;11.55;6.35;;;;;;;20.25;59.95;101742.56;6216640;23;20005;-90
2022/05/20 09:30:14;;;;;;;9.47;5.73;;;;;;;20.40;58.97;101744.53;6216747;23;20004;-85
2022/05/20 09:32:47;;;;;;;9.63;5.75;;;;;;;20.59;58.76;101728.78;6215844;23;20069;-86
2022/05/20 09:35:19;;;;;;;11.68;6.40;;;;;;;20.66;56.42;101713.53;6216628;23;20054;-87
2022/05/20 09:37:50;;;;;;;12.30;6.85;;;;;;;20.63;57.33;101708.41;6215173;23;20092;-87
2022/05/20 09:40:24;;;;;;;10.90;6.40;;;;;;;20.73;58.67;101707.06;6216393;23;20448;-86
2022/05/20 09:42:59;;;;;;;13.10;6.68;;;;;;;20.77;58.64;101713.13;6215881;23;20011;-86
2022/05/20 09:45:26;;;;;;;8.80;5.15;;;;;;;20.76;59.04;101703.47;6215762;23;20322;-84
2022/05/20 09:47:55;;;;;;;14.52;7.32;;;;;;;20.67;56.50;101699.44;6215563;23;20425;-85
2022/05/20 09:50:28;;;;;;;10.25;6.32;;;;;;;20.44;58.68;101697.78;6216278;23;20142;-85
2022/05/20 09:52:59;;;;;;;9.32;4.93;;;;;;;20.52;59.10;101690.41;6215306;23;20330;-84
2022/05/20 09:55:45;;;;;;;11.80;6.25;;;;;;;20.65;58.10;101673.13;6215678;23;20016;-85
2022/05/20 09:58:13;;;;;;;;;;;;;;;20.71;57.73;101650.91;6216445;23;20005;-85
2022/05/20 10:00:42;;;;;;;16.38;7.72;;;;;;;20.79;55.71;101640.88;6215872;23;20001;-81
2022/05/20 10:03:18;;;;;;;12.23;6.95;;;;;;;20.81;57.39;101656.63;6216307;23;20013;-83
2022/05/20 10:05:57;;;;;;;13.27;6.55;;;;;;;20.80;56.41;101637.31;6215176;23;20015;-82
2022/05/20 10:08:44;;;;;;;11.40;5.82;;;;;;;21.07;58.68;101642.22;6216690;23;20008;-83
2022/05/20 10:11:24;;;;;;;11.15;5.30;;;;;;;21.28;58.09;101623.66;6216117;23;20014;-83
2022/05/20 10:14:02;;;;;;;9.75;4.85;;;;;;;21.45;58.12;101609.63;6214966;23;20035;-85
2022/05/20 10:16:41;;;;;;;9.20;4.70;;;;;;;21.19;54.20;101589.78;6216455;23;20004;-86
2022/05/20 10:19:18;;;;;;;15.77;7.88;;;;;;;21.13;55.89;101591.81;6216433;23;20009;-85
2022/05/20 10:22:12;;;;;;;11.70;5.40;;;;;;;21.32;56.57;101593.53;6215144;23;20054;-83
2022/05/20 10:24:54;;;;;;;9.95;5.32;;;;;;;21.41;54.58;101585.16;6215934;23;20008;-84
2022/05/20 10:27:33;;;;;;;8.52;4.75;;;;;;;21.59;56.67;101574.66;6215421;23;20028;-83
2022/05/20 10:33:05;;;;;;;11.55;5.95;;;;;;;21.36;55.00;101558.16;6215559;23;20023;-83
2022/05/20 10:35:52;;;;;;;11.05;5.57;;;;;;;21.28;56.33;101553.25;6215416;23;20325;-83
2022/05/20 10:38:38;;;;;;;9.32;4.50;;;;;;;21.36;57.28;101552.00;6216211;23;20015;-83
2022/05/20 10:41:22;;;;;;;7.18;4.15;;;;;;;21.45;57.21;101549.78;6215163;23;20001;-83
2022/05/20 10:50:20;;;;;;;10.25;5.25;;;;;;;21.27;57.48;101508.47;6214810;23;20019;-83
2022/05/20 10:52:46;;;;;;;11.48;5.63;;;;;;;21.36;57.81;101489.50;6216219;23;20019;-82
2022/05/20 10:55:25;;;;;;;10.93;5.30;;;;;;;21.44;58.06;101494.41;6214453;23;20013;-83
2022/05/20 10:58:20;;;;;;;17.50;8.93;;;;;;;21.13;56.52;101466.91;6215564;23;20011;-82
2022/05/20 11:00:55;;;;;;;15.48;7.07;;;;;;;21.28;57.55;101450.28;6215573;23;20071;-83
2022/05/20 11:03:58;;;;;;;16.75;7.60;;;;;;;21.41;57.87;101434.66;6215010;23;20012;-87
2022/05/20 11:06:57;;;;;;;14.70;7.22;;;;;;;21.40;57.93;101421.56;6217270;23;20015;-89
2022/05/20 11:09:30;;;;;;;10.60;5.85;;;;;;;21.49;58.32;101412.31;6214946;23;20453;-87
2022/05/20 11:12:03;;;;;;;12.80;6.20;;;;;;;21.62;57.60;101400.16;6216151;23;20020;-84
2022/05/20 11:14:51;;;;;;;12.30;5.65;;;;;;;21.65;57.64;101388.63;6215246;23;20016;-82
2022/05/20 11:17:41;;;;;;;12.73;6.55;;;;;;;21.67;57.16;101382.31;6214900;23;20031;-85
2022/05/20 11:20:43;;;;;;;16.00;8.07;;;;;;;21.58;58.26;101374.84;6215684;23;20000;-84
2022/05/20 11:23:36;;;;;;;11.32;5.78;;;;;;;21.68;57.97;101377.84;6214714;23;20032;-86
2022/05/20 11:26:41;;;;;;;12.02;6.03;;;;;;;21.71;57.65;101375.94;6215626;23;20011;-83
2022/05/20 11:29:22;;;;;;;17.48;10.05;;;;;;;21.58;57.64;101369.56;6216030;23;20005;-86
2022/05/20 11:31:54;;;;;;;20.52;11.85;;;;;;;21.25;58.31;101367.78;6214537;23;20005;-87
2022/05/20 11:34:47;;;;;;;15.77;8.55;;;;;;;21.39;59.48;101357.31;6216092;23;20068;-89
2022/05/20 11:37:31;;;;;;;9.18;5.18;;;;;;;21.49;59.19;101354.22;6213951;23;20059;-82
2022/05/20 11:40:11;;;;;;;9.77;4.97;;;;;;;21.54;60.31;101354.81;6214965;23;20486;-81
2022/05/20 11:42:48;;;;;;;8.68;5.25;;;;;;;21.52;60.95;101344.34;6215393;23;20008;-81
2022/05/20 11:45:51;;;;;;;13.88;7.78;;;;;;;21.41;60.07;101354.63;6214419;23;20434;-84
2022/05/20 11:48:42;;;;;;;11.70;6.72;;;;;;;21.42;60.16;101346.59;6215155;23;20373;-85
2022/05/20 11:51:26;;;;;;;20.00;10.32;;;;;;;21.24;60.37;101343.16;6215320;23;20008;-84
2022/05/20 11:54:19;;;;;;;14.57;7.88;;;;;;;21.20;60.53;101325.78;6215504;23;20020;-90
2022/05/20 11:56:51;;;;;;;14.65;7.95;;;;;;;21.05;61.66;101311.63;6215665;23;20074;-91
2022/05/20 11:59:19;;;;;;;16.92;8.35;;;;;;;21.00;61.34;101291.69;6216498;23;20005;-91
2022/05/20 12:01:48;;;;;;;10.30;5.75;;;;;;;20.91;62.52;101311.47;6215688;23;20063;-91
2022/05/20 12:04:20;;;;;;;16.15;8.75;;;;;;;20.80;61.75;101314.63;6215727;23;20063;-86
2022/05/20 12:06:51;;;;;;;14.38;6.82;;;;;;;20.70;62.57;101300.19;6213962;23;20444;-85
2022/05/20 12:09:37;;;;;;;9.82;5.55;;;;;;;20.66;62.79;101320.59;6213744;23;20383;-84
2022/05/20 12:12:09;;;;;;;;;;;;;;;20.60;64.98;101349.91;6215649;23;20001;-85
2022/05/20 12:15:02;;;;;;;13.07;6.55;;;;;;;20.48;63.85;101323.22;6213502;23;19912;-86
2022/05/20 12:17:40;;;;;;;11.93;6.53;;;;;;;20.39;64.39;101291.19;6214531;23;20008;-88
2022/05/20 12:26:18;;;;;;;14.48;7.78;;;;;;;19.81;67.63;101271.97;6227522;23;20012;-88